Time;durP1;ratioP1;P1;durP2;ratioP2;P2;SDS_P1;SDS_P2;PMS_P1;PMS_P2;Temp;Humidity;BMP_temperature;BMP_pressure;BME280_temperature;BME280_humidity;BME280_pressure;Samples;Min_cycle;Max_cycle;Signal;HPM_P1;HPM_P2
2021/06/28 00:06:42;;;;;;;13.30;10.67;;;18.60;99.90;;;;;;3473514;23;20501;-58
2021/06/28 01:20:23;;;;;;;12.13;11.00;;;17.90;99.90;;;;;;4495488;23;20504;-60
2021/06/28 01:22:52;;;;;;;11.90;11.00;;;17.90;99.90;;;;;;5000831;28;20472;-60
2021/06/28 01:25:24;;;;;;;12.20;11.20;;;17.90;99.90;;;;;;5000164;28;20465;-57
2021/06/28 01:27:51;;;;;;;11.60;10.70;;;17.90;99.90;;;;;;4998793;28;20473;-59
2021/06/28 01:30:21;;;;;;;12.70;11.43;;;17.80;99.90;;;;;;4997692;28;20496;-56
2021/06/28 02:17:00;;;;;;;12.87;11.60;;;17.30;99.90;;;;;;5140757;27;20939;-61
2021/06/28 02:19:27;;;;;;;12.70;11.67;;;17.30;99.90;;;;;;5135778;28;20875;-61
2021/06/28 02:21:55;;;;;;;12.37;11.40;;;17.20;99.90;;;;;;5128576;28;20441;-61
2021/06/28 02:24:22;;;;;;;12.90;11.83;;;17.30;99.90;;;;;;5135326;28;20878;-61
2021/06/28 02:26:49;;;;;;;12.90;11.80;;;17.30;99.90;;;;;;5134877;28;20799;-61
2021/06/28 02:29:16;;;;;;;13.87;12.60;;;17.30;99.90;;;;;;5128905;28;20445;-60
2021/06/28 02:31:45;;;;;;;13.40;12.30;;;17.20;99.90;;;;;;5135623;28;20463;-60
2021/06/28 02:34:14;;;;;;;13.20;11.90;;;17.20;99.90;;;;;;5135131;28;20466;-60
2021/06/28 02:36:41;;;;;;;11.97;10.97;;;17.10;99.90;;;;;;5127380;28;20578;-60
2021/06/28 02:39:10;;;;;;;12.93;11.87;;;17.10;99.90;;;;;;5134894;28;20481;-60
2021/06/28 02:41:40;;;;;;;13.70;12.40;;;17.10;99.90;;;;;;5126118;28;20467;-60
2021/06/28 02:44:08;;;;;;;14.93;13.63;;;17.10;99.90;;;;;;5135079;28;20893;-60
2021/06/28 02:46:35;;;;;;;13.63;12.50;;;17.10;99.90;;;;;;5128118;28;20904;-60
2021/06/28 03:27:12;;;;;;;14.17;12.90;;;16.70;99.90;;;;;;4909759;29;20488;-60
2021/06/28 03:29:39;;;;;;;13.53;12.23;;;16.70;99.90;;;;;;4903271;29;20477;-60
2021/06/28 03:32:08;;;;;;;14.77;13.47;;;16.70;99.90;;;;;;4903243;29;20481;-61
2021/06/28 03:34:35;;;;;;;14.67;13.33;;;16.60;99.90;;;;;;4904070;29;20469;-61
2021/06/28 03:37:02;;;;;;;14.00;12.80;;;16.60;99.90;;;;;;4904268;29;20792;-61
2021/06/28 03:39:30;;;;;;;14.37;13.00;;;16.60;99.90;;;;;;4904020;29;20480;-60
2021/06/28 03:41:57;;;;;;;14.40;13.10;;;16.60;99.90;;;;;;4904074;29;20906;-60
2021/06/28 03:44:26;;;;;;;13.70;12.50;;;16.60;99.90;;;;;;4903657;29;20478;-60
2021/06/28 03:46:53;;;;;;;13.93;12.67;;;16.60;99.90;;;;;;4904700;29;20492;-60
2021/06/28 03:49:20;;;;;;;14.23;12.83;;;16.60;99.90;;;;;;4904870;29;20914;-60
2021/06/28 03:51:47;;;;;;;12.53;11.33;;;16.60;99.90;;;;;;4904323;29;20568;-60
2021/06/28 03:54:14;;;;;;;14.63;13.43;;;16.60;99.90;;;;;;4904038;29;20497;-60
2021/06/28 03:56:42;;;;;;;13.80;12.60;;;16.60;99.90;;;;;;4903971;29;20512;-60
2021/06/28 03:59:09;;;;;;;13.43;12.33;;;16.60;99.90;;;;;;4904252;29;20906;-60
2021/06/28 04:01:40;;;;;;;14.30;13.17;;;16.60;99.90;;;;;;4904059;29;20481;-60
2021/06/28 04:04:07;;;;;;;13.50;12.33;;;16.70;99.90;;;;;;4896628;29;20493;-60
2021/06/28 04:06:37;;;;;;;14.10;12.90;;;16.70;99.90;;;;;;4903264;29;20457;-60
2021/06/28 04:09:07;;;;;;;14.13;13.00;;;16.70;99.90;;;;;;4903773;29;20851;-60
2021/06/28 04:11:34;;;;;;;13.83;12.53;;;16.80;99.90;;;;;;4903511;29;20542;-60
2021/06/28 04:14:01;;;;;;;13.23;12.03;;;16.80;99.90;;;;;;4903431;29;20474;-60
2021/06/28 04:16:28;;;;;;;15.70;14.20;;;16.90;99.90;;;;;;4903470;29;20512;-60
2021/06/28 04:56:48;;;;;;;16.13;14.73;;;17.50;99.90;;;;;;4298229;23;20501;-60
2021/06/28 04:59:17;;;;;;;14.93;13.60;;;17.40;62.60;;;;;;4897180;29;20768;-60
2021/06/28 05:01:44;;;;;;;14.60;13.30;;;17.60;99.90;;;;;;4902863;29;20469;-60
2021/06/28 05:04:11;;;;;;;16.10;14.70;;;17.70;99.90;;;;;;4896901;29;20480;-60
2021/06/28 05:06:38;;;;;;;15.10;13.90;;;17.80;99.90;;;;;;4907681;29;20453;-60
2021/06/28 05:09:08;;;;;;;14.43;13.17;;;17.90;28.50;;;;;;4903467;29;20569;-60
2021/06/28 05:11:39;;;;;;;16.00;14.60;;;18.00;1.00;;;;;;4902861;29;20473;-60
2021/06/28 05:14:08;;;;;;;15.37;14.03;;;18.00;1.00;;;;;;4902235;29;20465;-59
2021/06/28 05:16:35;;;;;;;15.33;14.03;;;18.20;1.00;;;;;;4902228;29;20505;-59
2021/06/28 05:19:03;;;;;;;16.17;14.83;;;18.30;1.00;;;;;;4902379;29;20906;-58
2021/06/28 05:21:30;;;;;;;15.77;14.37;;;18.40;99.90;;;;;;4906166;29;20483;-59
2021/06/28 05:23:57;;;;;;;16.20;14.90;;;18.50;99.90;;;;;;4901359;29;20476;-59
2021/06/28 05:26:27;;;;;;;17.20;15.30;;;18.60;99.90;;;;;;4902401;29;20465;-55
2021/06/28 05:28:56;;;;;;;16.07;14.67;;;18.60;99.90;;;;;;4902077;29;20505;-58
2021/06/28 05:31:26;;;;;;;15.67;14.07;;;18.80;99.90;;;;;;4902682;29;20838;-57
2021/06/28 05:33:53;;;;;;;16.27;14.57;;;19.00;99.90;;;;;;4902033;29;20561;-57
2021/06/28 05:36:20;;;;;;;16.23;14.60;;;19.30;1.00;;;;;;4902407;29;20509;-58
2021/06/28 05:38:48;;;;;;;15.63;14.43;;;19.50;1.00;;;;;;4906538;29;20789;-58
2021/06/28 05:41:19;;;;;;;16.60;15.20;;;19.70;99.90;;;;;;4902283;29;20479;-55
2021/06/28 05:43:48;;;;;;;15.80;14.37;;;19.90;99.90;;;;;;4902379;29;20473;-55
2021/06/28 05:46:15;;;;;;;14.83;13.23;;;20.10;99.90;;;;;;4901771;29;20921;-58
2021/06/28 05:48:44;;;;;;;16.07;14.63;;;20.40;92.50;;;;;;4901968;29;20552;-58
2021/06/28 05:51:11;;;;;;;14.77;13.60;;;20.50;99.90;;;;;;4902018;29;20486;-53
2021/06/28 05:53:38;;;;;;;15.63;14.23;;;20.80;28.00;;;;;;4902170;29;20481;-55
2021/06/28 05:56:07;;;;;;;14.67;13.47;;;21.00;1.00;;;;;;4901677;29;20920;-57
2021/06/28 05:58:37;;;;;;;14.67;13.43;;;20.90;1.00;;;;;;4902210;29;20496;-58
2021/06/28 06:01:04;;;;;;;16.17;14.87;;;20.90;1.00;;;;;;4901717;29;20484;-58
2021/06/28 06:03:31;;;;;;;14.90;13.60;;;21.00;1.00;;;;;;4896289;29;20585;-58
2021/06/28 06:06:00;;;;;;;15.13;13.53;;;21.10;1.00;;;;;;4899227;29;20452;-58
2021/06/28 06:46:00;;;;;;;12.73;11.53;;;23.40;1.00;;;;;;2977809;23;20804;-57
2021/06/28 06:48:32;;;;;;;12.97;11.97;;;23.50;1.00;;;;;;4902537;29;20480;-53
2021/06/28 06:50:59;;;;;;;12.27;11.27;;;23.60;1.00;;;;;;4901226;29;20906;-55
2021/06/28 06:53:29;;;;;;;12.50;11.47;;;23.70;1.00;;;;;;4901329;29;20476;-53
2021/06/28 06:55:56;;;;;;;12.30;11.30;;;23.70;1.00;;;;;;4900489;29;20505;-55
2021/06/28 06:58:23;;;;;;;12.43;10.87;;;23.80;1.00;;;;;;4900331;29;20481;-56
2021/06/28 07:00:50;;;;;;;12.77;11.60;;;23.70;1.00;;;;;;4900529;29;20479;-54
2021/06/28 07:40:20;;;;;;;10.03;9.43;;;27.00;1.00;;;;;;4037215;23;20492;-55
2021/06/28 07:42:48;;;;;;;9.80;9.07;;;27.30;1.00;;;;;;4902158;29;20512;-51
2021/06/28 07:45:16;;;;;;;9.50;8.90;;;26.90;1.00;;;;;;4904325;29;20472;-50
2021/06/28 07:47:48;;;;;;;9.47;8.77;;;26.90;1.00;;;;;;4904463;29;20798;-51
2021/06/28 07:50:16;;;;;;;10.20;9.50;;;27.00;1.00;;;;;;4903586;29;20556;-54
2021/06/28 07:52:44;;;;;;;9.60;8.87;;;27.00;1.00;;;;;;4904423;29;20762;-53
2021/06/28 07:55:13;;;;;;;10.17;9.33;;;26.80;1.00;;;;;;4904373;29;20769;-47
2021/06/28 07:57:42;;;;;;;8.37;7.77;;;26.70;1.00;;;;;;4903764;29;20512;-54
2021/06/28 08:00:12;;;;;;;9.10;8.40;;;26.90;1.00;;;;;;4903555;29;20473;-48
2021/06/28 08:02:42;;;;;;;9.23;8.63;;;26.60;1.00;;;;;;4901202;29;20476;-55
2021/06/28 08:05:11;;;;;;;9.50;8.80;;;26.60;1.00;;;;;;4900505;29;20528;-48
2021/06/28 08:07:43;;;;;;;9.33;8.80;;;26.60;1.00;;;;;;4903752;29;20469;-55
2021/06/28 08:10:13;;;;;;;9.53;8.77;;;26.60;1.00;;;;;;4903435;29;20473;-54
2021/06/28 08:51:09;;;;;;;8.10;7.60;;;31.10;99.90;;;;;;4353515;23;20962;-54
2021/06/28 08:53:36;;;;;;;7.57;6.87;;;31.30;99.90;;;;;;4903661;29;20839;-53
2021/06/28 08:56:07;;;;;;;8.47;6.83;;;31.50;99.90;;;;;;4902800;29;20505;-53
2021/06/28 08:58:34;;;;;;;8.57;8.00;;;31.60;99.90;;;;;;4902979;29;20455;-53
2021/06/28 09:01:02;;;;;;;7.90;7.40;;;31.30;99.90;;;;;;4902562;29;20479;-55
2021/06/28 09:03:29;;;;;;;7.47;7.07;;;30.50;99.90;;;;;;4896114;29;20806;-52
2021/06/28 09:06:03;;;;;;;8.13;7.53;;;30.20;99.90;;;;;;4899476;29;20481;-55
2021/06/28 09:08:32;;;;;;;7.40;6.80;;;29.70;99.90;;;;;;4896637;29;20505;-48
2021/06/28 09:11:00;;;;;;;7.20;6.67;;;29.70;99.90;;;;;;4902688;29;20477;-48
2021/06/28 09:13:41;;;;;;;6.00;5.60;;;30.10;99.90;;;;;;4902435;29;20472;-54
2021/06/28 09:16:16;;;;;;;6.50;6.00;;;30.30;99.90;;;;;;4902064;29;20469;-52
2021/06/28 09:56:35;;;;;;;7.60;7.07;;;31.40;99.90;;;;;;3807157;23;20493;-55
2021/06/28 09:59:25;;;;;;;7.57;6.97;;;30.90;99.90;;;;;;4902240;29;20473;-51
2021/06/28 10:02:18;;;;;;;7.90;7.33;;;31.00;99.90;;;;;;4901607;29;20589;-53
2021/06/28 10:04:54;;;;;;;6.97;6.47;;;31.40;99.90;;;;;;4889922;29;20474;-54
2021/06/28 10:07:30;;;;;;;7.33;6.80;;;31.30;99.90;;;;;;4901207;29;20469;-51
2021/06/28 10:10:12;;;;;;;7.60;7.10;;;31.40;99.90;;;;;;4901430;29;20762;-55
2021/06/28 10:12:46;;;;;;;7.40;6.90;;;30.70;99.90;;;;;;4901669;29;20914;-52
2021/06/28 10:15:15;;;;;;;8.03;7.53;;;30.00;99.90;;;;;;4901658;29;20480;-56
2021/06/28 10:17:43;;;;;;;7.80;7.17;;;30.10;99.90;;;;;;4895550;29;20508;-52
2021/06/28 10:20:13;;;;;;;6.83;6.43;;;30.70;99.90;;;;;;4895520;29;20473;-57
2021/06/28 10:22:42;;;;;;;6.77;6.27;;;31.20;99.90;;;;;;4895618;29;20746;-52
2021/06/28 10:25:11;;;;;;;6.60;6.20;;;31.40;99.90;;;;;;4901966;29;20497;-54
2021/06/28 10:27:39;;;;;;;6.53;6.13;;;31.10;99.90;;;;;;4901285;29;20473;-57
2021/06/28 10:30:17;;;;;;;7.57;6.87;;;30.80;99.90;;;;;;4900422;29;20482;-55
2021/06/28 10:32:48;;;;;;;6.70;6.20;;;30.70;99.90;;;;;;4895718;29;20851;-52
2021/06/28 10:35:22;;;;;;;6.23;5.93;;;30.50;99.90;;;;;;4901662;29;20477;-56
2021/06/28 10:37:50;;;;;;;8.17;7.63;;;30.70;99.90;;;;;;4903778;29;20503;-56
2021/06/28 10:40:18;;;;;;;7.87;7.27;;;30.70;99.90;;;;;;4905220;29;20752;-55
2021/06/28 10:42:48;;;;;;;8.43;7.83;;;29.80;99.90;;;;;;4905425;29;20902;-53
2021/06/28 10:45:36;;;;;;;8.23;7.70;;;29.60;99.90;;;;;;4905497;29;20476;-54
2021/06/28 10:48:09;;;;;;;8.30;7.67;;;29.40;99.90;;;;;;4904874;29;20831;-51
2021/06/28 10:50:57;;;;;;;8.63;7.97;;;29.20;99.90;;;;;;4904972;29;20451;-54
2021/06/28 10:54:11;;;;;;;7.90;7.40;;;28.80;99.90;;;;;;4904559;29;20468;-52
2021/06/28 10:56:57;;;;;;;8.17;7.47;;;28.60;99.90;;;;;;4891046;29;20520;-55
2021/06/28 10:59:30;;;;;;;7.43;6.93;;;28.30;99.90;;;;;;4904841;29;20736;-50
2021/06/28 11:02:04;;;;;;;8.00;7.40;;;28.20;99.90;;;;;;4904883;29;20480;-54
2021/06/28 11:04:37;;;;;;;9.00;8.30;;;28.30;99.90;;;;;;4895517;29;20485;-51
2021/06/28 12:15:47;;;;;;;8.20;7.60;;;28.00;1.00;;;;;;5060801;23;20529;-60
2021/06/28 12:18:22;;;;;;;8.60;8.00;;;28.60;1.00;;;;;;4883032;29;20502;-61
2021/06/28 12:20:56;;;;;;;7.00;6.50;;;28.80;1.00;;;;;;4885099;29;20553;-59
2021/06/28 12:23:30;;;;;;;7.77;7.17;;;28.80;1.00;;;;;;4883289;29;20478;-58
2021/06/28 12:26:12;;;;;;;8.30;7.60;;;29.20;1.00;;;;;;4883373;29;20478;-59
2021/06/28 12:28:39;;;;;;;6.90;6.20;;;29.70;1.00;;;;;;4878057;29;20470;-58
2021/06/28 12:31:18;;;;;;;5.43;5.03;;;30.30;99.90;;;;;;4884276;29;20797;-58
2021/06/28 12:33:45;;;;;;;5.33;4.93;;;30.50;99.90;;;;;;4884603;29;20504;-59
2021/06/28 12:36:18;;;;;;;5.67;5.27;;;30.60;99.90;;;;;;4883459;29;20459;-58
2021/06/28 12:38:45;;;;;;;5.00;4.60;;;30.80;99.90;;;;;;4883544;29;20473;-56
2021/06/28 12:41:12;;;;;;;5.97;5.57;;;31.20;99.90;;;;;;4884064;29;20892;-57
2021/06/28 13:57:28;;;;;;;8.40;7.70;;;27.00;99.90;;;;;;5364110;23;20455;-57
2021/06/28 13:59:56;;;;;;;8.13;7.03;;;27.30;99.90;;;;;;4857356;29;20904;-55
2021/06/28 14:39:56;;;;;;;6.23;5.30;;;29.70;99.90;;;;;;3832544;23;20505;-50
2021/06/28 14:42:24;;;;;;;6.33;5.90;;;30.50;99.90;;;;;;4882883;29;20478;-54
2021/06/28 14:44:54;;;;;;;6.23;5.80;;;30.80;99.90;;;;;;4882293;29;20556;-53
2021/06/28 14:47:21;;;;;;;6.67;6.17;;;30.80;99.90;;;;;;4882425;29;20470;-49
2021/06/28 14:49:49;;;;;;;7.10;6.60;;;30.60;99.90;;;;;;4882249;29;20756;-53
2021/06/28 14:52:19;;;;;;;6.57;6.07;;;30.50;99.90;;;;;;4882732;29;20499;-57
2021/06/28 14:54:46;;;;;;;7.77;7.07;;;30.70;99.90;;;;;;4882621;29;20493;-50
2021/06/28 14:57:15;;;;;;;6.73;6.33;;;30.70;99.90;;;;;;4883000;29;20505;-54
2021/06/28 14:59:43;;;;;;;7.17;6.77;;;30.50;99.90;;;;;;4881775;29;20775;-49
2021/06/28 15:02:10;;;;;;;6.93;6.43;;;30.70;99.90;;;;;;4880278;29;20572;-56
2021/06/28 15:04:38;;;;;;;6.50;6.03;;;31.10;99.90;;;;;;4871191;29;20474;-58
2021/06/28 15:07:06;;;;;;;6.87;6.30;;;30.30;99.90;;;;;;4881630;29;20470;-55
2021/06/28 15:09:35;;;;;;;7.77;7.17;;;29.50;99.90;;;;;;4875471;29;20475;-56
2021/06/28 15:12:04;;;;;;;7.50;6.70;;;29.10;99.90;;;;;;4879777;29;20493;-56
2021/06/28 15:14:36;;;;;;;7.13;6.50;;;28.70;99.90;;;;;;4881357;29;20887;-55
2021/06/28 15:17:11;;;;;;;7.60;7.00;;;28.30;99.90;;;;;;4882764;29;20475;-55
2021/06/28 15:19:42;;;;;;;7.37;6.77;;;28.30;99.90;;;;;;4880863;29;20477;-49
2021/06/28 15:22:10;;;;;;;7.13;6.63;;;28.20;99.90;;;;;;4879698;29;20537;-56
2021/06/28 15:24:37;;;;;;;7.90;7.23;;;27.90;99.90;;;;;;4877625;29;20482;-49
2021/06/28 15:27:05;;;;;;;8.20;7.40;;;27.80;99.90;;;;;;4881971;29;20532;-54
2021/06/28 15:29:37;;;;;;;6.67;6.10;;;27.70;99.90;;;;;;4882819;29;20484;-54
2021/06/28 15:32:06;;;;;;;7.57;6.90;;;27.40;99.90;;;;;;4884209;29;20478;-55
2021/06/28 15:34:33;;;;;;;7.57;6.93;;;27.00;99.90;;;;;;4885422;29;20478;-54
2021/06/28 15:37:01;;;;;;;7.90;7.40;;;26.90;99.90;;;;;;4885494;29;20480;-54
2021/06/28 15:39:31;;;;;;;8.10;7.50;;;27.10;99.90;;;;;;4885258;29;20502;-57
2021/06/28 15:41:59;;;;;;;8.63;7.90;;;27.10;99.90;;;;;;4904092;29;20884;-54
2021/06/28 15:44:26;;;;;;;8.90;8.20;;;27.00;99.90;;;;;;4903633;29;20776;-50
2021/06/28 15:46:55;;;;;;;8.17;7.67;;;27.10;99.90;;;;;;4904627;29;20966;-56
2021/06/28 15:49:22;;;;;;;8.43;7.73;;;27.40;99.90;;;;;;4903301;29;20474;-56
2021/06/28 15:51:49;;;;;;;8.10;7.40;;;27.80;99.90;;;;;;4904429;29;20476;-56
2021/06/28 15:54:18;;;;;;;7.33;6.63;;;27.80;99.90;;;;;;4903280;29;20478;-52
2021/06/28 15:56:45;;;;;;;7.83;7.10;;;27.70;99.90;;;;;;4902969;29;20501;-54
2021/06/28 15:59:12;;;;;;;6.70;6.07;;;27.20;99.90;;;;;;4902391;29;20507;-56
2021/06/28 16:01:42;;;;;;;7.13;6.63;;;27.30;99.90;;;;;;4902830;29;20473;-55
2021/06/28 16:04:14;;;;;;;6.23;5.80;;;27.30;99.90;;;;;;4896105;29;21169;-50
2021/06/28 16:06:42;;;;;;;4.77;4.50;;;27.70;99.90;;;;;;4902413;29;20484;-51
2021/06/28 16:09:10;;;;;;;5.70;5.30;;;27.90;99.90;;;;;;4917370;29;20464;-49
2021/06/28 16:11:38;;;;;;;5.20;4.90;;;28.20;99.90;;;;;;4922205;29;20906;-51
2021/06/28 16:14:10;;;;;;;5.60;5.20;;;28.30;99.90;;;;;;4920637;29;20476;-51
2021/06/28 16:16:37;;;;;;;5.13;4.83;;;28.60;99.90;;;;;;4922331;29;20468;-54
2021/06/28 16:19:04;;;;;;;5.70;5.20;;;28.60;99.90;;;;;;4921312;29;21015;-51
2021/06/28 16:21:35;;;;;;;5.40;5.00;;;28.60;99.90;;;;;;4921594;29;20472;-50
2021/06/28 16:24:08;;;;;;;4.90;4.50;;;28.50;99.90;;;;;;4915248;29;20579;-50
2021/06/28 16:26:35;;;;;;;6.60;6.10;;;28.70;99.90;;;;;;4922032;29;20897;-53
2021/06/28 16:29:05;;;;;;;5.87;5.37;;;28.60;99.90;;;;;;4921914;29;20487;-55
2021/06/28 16:31:33;;;;;;;5.73;5.33;;;28.80;99.90;;;;;;4919736;29;20488;-56
2021/06/28 16:34:01;;;;;;;6.90;6.30;;;28.80;99.90;;;;;;4920307;29;20482;-48
2021/06/28 16:36:29;;;;;;;7.00;6.50;;;28.30;99.90;;;;;;4917844;29;20512;-50
2021/06/28 16:38:59;;;;;;;6.97;6.40;;;28.20;99.90;;;;;;4921959;29;20515;-55
2021/06/28 16:41:26;;;;;;;7.20;6.70;;;27.90;99.90;;;;;;4888536;29;20593;-55
2021/06/28 16:43:54;;;;;;;7.00;5.80;;;27.90;99.90;;;;;;4883588;29;20481;-51
2021/06/28 16:46:21;;;;;;;6.00;5.60;;;27.50;99.90;;;;;;4883849;29;20479;-52
2021/06/28 16:48:51;;;;;;;6.40;6.00;;;27.60;99.90;;;;;;4880697;29;20522;-48
2021/06/28 16:51:19;;;;;;;6.93;6.37;;;27.70;99.90;;;;;;4883546;29;21004;-47
2021/06/28 16:53:47;;;;;;;6.83;6.33;;;27.30;99.90;;;;;;4883182;29;20907;-50
2021/06/28 16:56:15;;;;;;;6.63;6.03;;;27.00;99.90;;;;;;4884064;29;20474;-50
2021/06/28 16:58:45;;;;;;;6.60;6.20;;;27.00;1.00;;;;;;4883384;29;20592;-53
2021/06/28 17:01:15;;;;;;;5.83;5.37;;;27.10;1.00;;;;;;4883444;29;20548;-54
2021/06/28 17:03:46;;;;;;;5.70;5.23;;;27.50;1.00;;;;;;4878024;29;20567;-51
2021/06/28 17:06:15;;;;;;;6.10;5.60;;;27.30;99.90;;;;;;4882519;29;20568;-52
2021/06/28 17:08:42;;;;;;;5.73;5.33;;;27.30;99.90;;;;;;4883962;29;20553;-56
2021/06/28 17:11:09;;;;;;;5.70;5.30;;;27.50;99.90;;;;;;4882414;29;20474;-53
2021/06/28 17:13:38;;;;;;;5.70;5.30;;;27.80;99.90;;;;;;4884041;29;20470;-55
2021/06/28 17:16:06;;;;;;;7.40;5.73;;;27.70;99.90;;;;;;4882315;29;20470;-57
2021/06/28 17:18:33;;;;;;;5.43;5.03;;;27.70;99.90;;;;;;4882795;29;20502;-51
2021/06/28 17:21:01;;;;;;;5.60;5.10;;;27.80;99.90;;;;;;4883148;29;20481;-54
2021/06/28 17:23:28;;;;;;;4.90;4.60;;;27.70;99.90;;;;;;4882101;29;20896;-53
2021/06/28 17:25:55;;;;;;;5.97;5.47;;;27.80;99.90;;;;;;4883665;29;20470;-54
2021/06/28 17:28:25;;;;;;;5.30;4.90;;;27.70;99.90;;;;;;5041008;23;20846;-55
2021/06/28 17:30:58;;;;;;;5.50;5.00;;;27.70;99.90;;;;;;4893524;29;20559;-54
2021/06/28 17:33:26;;;;;;;5.90;5.50;;;27.70;99.90;;;;;;4902371;29;20473;-57
2021/06/28 17:35:53;;;;;;;4.93;4.53;;;27.70;99.90;;;;;;4902793;29;20470;-56
2021/06/28 17:38:20;;;;;;;5.10;4.60;;;27.60;99.90;;;;;;4903034;29;20493;-57
2021/06/28 17:40:47;;;;;;;4.40;4.00;;;27.60;99.90;;;;;;4901964;29;20476;-55
2021/06/28 17:43:17;;;;;;;7.73;5.47;;;27.50;99.90;;;;;;4902112;29;20624;-49
2021/06/28 17:45:44;;;;;;;4.97;4.67;;;27.50;99.90;;;;;;4901375;29;20954;-57
2021/06/28 17:48:22;;;;;;;4.83;4.53;;;27.30;99.90;;;;;;4901767;29;20469;-55
2021/06/28 17:50:53;;;;;;;4.80;4.50;;;27.10;99.90;;;;;;4895345;29;20454;-55
2021/06/28 17:53:20;;;;;;;7.57;4.80;;;26.70;99.90;;;;;;4899915;29;20957;-56
2021/06/28 17:55:52;;;;;;;4.90;4.60;;;26.60;99.90;;;;;;4901113;29;20473;-55
2021/06/28 17:58:19;;;;;;;4.70;4.23;;;26.60;99.90;;;;;;4899451;29;20478;-56
2021/06/28 18:00:46;;;;;;;4.90;4.60;;;26.60;99.90;;;;;;4898711;29;20483;-53
2021/06/28 18:03:16;;;;;;;5.13;4.83;;;26.60;99.90;;;;;;4887988;29;20474;-57
2021/06/28 18:05:43;;;;;;;5.80;5.30;;;26.40;1.00;;;;;;4896840;29;20481;-55
2021/06/28 18:08:11;;;;;;;5.90;4.80;;;26.30;1.00;;;;;;4901099;29;20564;-57
2021/06/28 18:10:38;;;;;;;5.13;4.83;;;26.30;1.00;;;;;;4899631;29;20473;-57
2021/06/28 18:13:08;;;;;;;5.30;4.90;;;26.20;1.00;;;;;;4901529;29;20473;-54
2021/06/28 18:15:38;;;;;;;6.13;5.63;;;26.10;1.00;;;;;;4899521;29;20480;-56
2021/06/28 18:18:08;;;;;;;5.33;4.90;;;26.10;1.00;;;;;;4901314;29;20946;-56
2021/06/28 18:20:39;;;;;;;4.70;4.43;;;26.00;1.00;;;;;;4901185;29;20470;-57
2021/06/28 18:23:06;;;;;;;6.23;5.30;;;26.10;1.00;;;;;;4898399;29;20736;-52
2021/06/28 18:25:36;;;;;;;5.53;5.23;;;25.90;1.00;;;;;;4901703;29;20481;-51
2021/06/28 18:28:09;;;;;;;6.87;6.17;;;25.70;1.00;;;;;;4900102;29;20477;-53
2021/06/28 18:30:39;;;;;;;5.83;5.50;;;25.60;1.00;;;;;;4899677;29;20500;-50
2021/06/28 18:33:06;;;;;;;5.77;5.37;;;25.40;1.00;;;;;;4898557;29;20470;-57
2021/06/28 18:35:34;;;;;;;6.57;6.17;;;25.40;1.00;;;;;;4896930;29;20467;-55
2021/06/28 18:38:02;;;;;;;7.20;6.53;;;25.00;1.00;;;;;;4901200;29;20926;-50
2021/06/28 18:40:29;;;;;;;7.10;6.50;;;24.90;1.00;;;;;;4900627;29;20747;-50
2021/06/28 18:42:59;;;;;;;7.80;7.03;;;24.70;1.00;;;;;;4902093;29;20477;-47
2021/06/28 18:45:26;;;;;;;6.93;6.33;;;24.60;1.00;;;;;;4901376;29;20504;-50
2021/06/28 18:47:53;;;;;;;9.10;6.93;;;24.50;1.00;;;;;;4901348;29;20755;-51
2021/06/28 18:50:21;;;;;;;7.70;7.20;;;24.50;1.00;;;;;;4901293;29;20564;-54
2021/06/28 18:52:49;;;;;;;7.20;6.70;;;24.40;1.00;;;;;;4907148;29;20473;-50
2021/06/28 18:55:22;;;;;;;6.93;6.53;;;24.30;1.00;;;;;;4901377;29;20481;-48
2021/06/28 18:57:49;;;;;;;7.43;6.73;;;24.30;1.00;;;;;;4902208;29;20473;-46
2021/06/28 19:00:25;;;;;;;8.57;7.97;;;24.10;1.00;;;;;;4902842;29;20949;-46
2021/06/28 19:03:01;;;;;;;6.70;6.30;;;24.10;1.00;;;;;;4900853;29;20476;-49
2021/06/28 19:05:29;;;;;;;7.37;6.77;;;24.00;1.00;;;;;;4896389;29;20913;-48
2021/06/28 19:07:56;;;;;;;7.37;6.87;;;23.80;1.00;;;;;;4910429;29;20480;-46
2021/06/28 19:10:25;;;;;;;6.23;5.73;;;23.70;1.00;;;;;;4904321;29;20944;-48
2021/06/28 19:12:55;;;;;;;7.50;6.80;;;23.80;1.00;;;;;;4904761;29;20472;-47
2021/06/28 19:15:25;;;;;;;7.37;6.67;;;23.70;1.00;;;;;;4905029;29;20742;-46
2021/06/28 19:17:53;;;;;;;7.93;7.33;;;23.70;1.00;;;;;;4895865;29;20468;-46
2021/06/28 19:20:27;;;;;;;7.00;6.50;;;23.70;1.00;;;;;;4901077;29;20502;-50
2021/06/28 19:22:57;;;;;;;7.20;6.50;;;23.60;1.00;;;;;;4897586;29;20472;-46
2021/06/28 19:25:26;;;;;;;6.60;6.10;;;23.60;1.00;;;;;;4904026;29;20473;-48
2021/06/28 19:27:53;;;;;;;7.80;7.30;;;23.60;1.00;;;;;;4904427;29;20513;-46
2021/06/28 19:30:22;;;;;;;7.00;6.50;;;23.70;1.00;;;;;;4903871;29;20511;-52
2021/06/28 19:32:51;;;;;;;7.47;6.97;;;23.60;1.00;;;;;;4905968;29;20879;-47
2021/06/28 19:35:18;;;;;;;7.70;7.20;;;23.60;1.00;;;;;;4903703;29;20473;-48
2021/06/28 19:37:48;;;;;;;6.67;6.17;;;23.60;1.00;;;;;;4903586;29;20536;-53
2021/06/28 19:40:17;;;;;;;6.83;6.43;;;23.60;1.00;;;;;;4902886;29;20500;-55
2021/06/28 19:42:48;;;;;;;6.60;6.20;;;23.60;1.00;;;;;;4903485;29;20513;-53
2021/06/28 19:45:18;;;;;;;6.80;6.40;;;23.60;1.00;;;;;;4905110;29;20473;-50
2021/06/28 19:50:17;;;;;;;7.50;6.80;;;23.50;1.00;;;;;;4883127;29;20506;-53
2021/06/28 19:52:47;;;;;;;8.77;7.97;;;23.30;1.00;;;;;;4888068;29;20470;-51
2021/06/28 19:55:20;;;;;;;7.10;6.70;;;23.30;1.00;;;;;;4880217;29;20457;-48
2021/06/28 19:57:49;;;;;;;6.87;6.37;;;23.10;1.00;;;;;;4885135;29;20564;-53
2021/06/28 20:00:17;;;;;;;7.33;6.83;;;23.00;1.00;;;;;;4885467;29;21038;-55
2021/06/28 20:02:44;;;;;;;7.23;6.73;;;22.80;1.00;;;;;;4882476;29;20481;-57
2021/06/28 20:05:16;;;;;;;6.80;6.30;;;22.70;1.00;;;;;;4878141;29;20474;-53
2021/06/28 20:07:43;;;;;;;7.57;6.83;;;22.60;1.00;;;;;;4885441;29;20663;-52
2021/06/28 20:10:12;;;;;;;7.57;6.90;;;22.60;1.00;;;;;;4884274;29;20645;-56
2021/06/28 20:12:42;;;;;;;7.00;6.40;;;22.60;1.00;;;;;;4885455;29;20831;-56
2021/06/28 20:15:11;;;;;;;7.20;6.60;;;22.60;1.00;;;;;;4878721;29;20489;-55
2021/06/28 20:17:39;;;;;;;7.30;6.70;;;22.60;1.00;;;;;;4884028;29;20475;-51
2021/06/28 20:20:11;;;;;;;7.90;7.27;;;22.60;1.00;;;;;;4884398;29;20509;-51
2021/06/28 20:22:40;;;;;;;7.30;6.80;;;22.50;1.00;;;;;;4885026;29;20553;-50
2021/06/28 20:25:09;;;;;;;9.00;7.83;;;22.40;7.70;;;;;;4884783;29;20888;-53
2021/06/28 20:27:36;;;;;;;7.53;6.97;;;22.50;1.00;;;;;;4884642;29;20540;-53
2021/06/28 20:30:06;;;;;;;8.23;7.53;;;22.50;17.10;;;;;;4879398;29;20550;-52
2021/06/28 20:32:35;;;;;;;7.63;7.03;;;22.50;38.30;;;;;;4884330;29;20927;-54
2021/06/28 20:35:02;;;;;;;13.10;8.37;;;22.50;48.30;;;;;;4884484;29;20907;-50
2021/06/28 20:37:29;;;;;;;8.77;8.07;;;22.40;99.90;;;;;;4884640;29;20515;-52
2021/06/28 20:39:57;;;;;;;8.57;7.87;;;22.50;99.90;;;;;;4883842;29;20558;-53
2021/06/28 20:42:24;;;;;;;8.17;7.57;;;22.50;99.90;;;;;;4884251;29;20526;-50
2021/06/28 20:44:53;;;;;;;7.70;7.10;;;22.50;99.90;;;;;;4884145;29;20478;-52
2021/06/28 20:47:23;;;;;;;8.30;7.50;;;22.50;99.90;;;;;;4884286;29;20852;-53
2021/06/28 20:49:54;;;;;;;8.30;7.60;;;22.50;99.90;;;;;;4884079;29;20516;-53
2021/06/28 20:52:21;;;;;;;8.97;8.27;;;22.40;99.90;;;;;;4884471;29;20453;-53
2021/06/28 20:54:51;;;;;;;9.30;8.23;;;22.20;99.90;;;;;;4884177;29;20474;-46
2021/06/28 20:57:21;;;;;;;9.83;9.03;;;22.20;99.90;;;;;;4884563;29;20471;-50
2021/06/28 20:59:52;;;;;;;8.93;8.23;;;22.10;99.90;;;;;;4881214;29;20494;-55
2021/06/28 21:02:19;;;;;;;8.33;7.73;;;22.20;99.90;;;;;;4877846;29;20481;-56
2021/06/28 21:04:46;;;;;;;8.00;7.30;;;22.20;99.90;;;;;;4884368;29;20474;-56
2021/06/28 21:07:15;;;;;;;8.50;7.80;;;22.10;99.90;;;;;;4880944;29;22488;-56
2021/06/28 21:09:44;;;;;;;8.07;7.47;;;22.00;99.90;;;;;;4879105;29;20471;-56
2021/06/28 21:12:16;;;;;;;8.20;7.37;;;21.90;99.90;;;;;;4883576;29;20445;-56
2021/06/28 21:14:43;;;;;;;8.40;7.70;;;21.90;99.90;;;;;;4883166;29;20894;-56
2021/06/28 21:17:10;;;;;;;8.60;7.93;;;21.90;99.90;;;;;;4882480;29;20729;-54
2021/06/28 21:19:39;;;;;;;8.13;7.47;;;21.90;99.90;;;;;;4882141;29;20981;-54
2021/06/28 21:22:06;;;;;;;8.63;7.93;;;22.00;99.90;;;;;;4882982;29;20922;-54
2021/06/28 21:24:37;;;;;;;8.83;8.13;;;21.90;99.90;;;;;;4883255;29;20579;-56
2021/06/28 21:27:06;;;;;;;9.00;8.20;;;21.90;99.90;;;;;;4888175;29;20470;-56
2021/06/28 21:29:39;;;;;;;8.63;7.87;;;21.90;99.90;;;;;;4882501;29;20794;-49
2021/06/28 21:32:07;;;;;;;8.10;7.50;;;21.90;99.90;;;;;;4878636;29;20466;-50
2021/06/28 21:34:34;;;;;;;8.53;7.83;;;21.90;99.90;;;;;;4882599;29;20898;-56
2021/06/28 21:37:03;;;;;;;9.30;8.60;;;22.00;99.90;;;;;;4882070;29;20474;-55
2021/06/28 21:39:30;;;;;;;8.30;7.63;;;22.00;99.90;;;;;;4882989;29;20502;-52
2021/06/28 21:41:59;;;;;;;9.20;8.07;;;22.00;99.90;;;;;;4882390;29;20474;-54
2021/06/28 21:44:28;;;;;;;8.80;8.03;;;21.90;99.90;;;;;;4882805;29;20746;-54
2021/06/28 21:46:55;;;;;;;9.07;8.30;;;22.00;99.90;;;;;;4881194;29;20474;-56